createdAt,value
2022-08-21T00:00:33.533Z,12.80
2022-08-21T00:01:33.249Z,12.79
2022-08-21T00:02:33.684Z,12.74
2022-08-21T00:03:33.008Z,12.71
2022-08-21T00:04:32.970Z,12.74
2022-08-21T00:05:32.953Z,12.73
2022-08-21T00:06:32.954Z,12.71
2022-08-21T00:07:33.009Z,12.69
2022-08-21T00:08:33.030Z,12.63
2022-08-21T00:09:32.893Z,12.63
2022-08-21T00:10:33.238Z,12.62
2022-08-21T00:11:33.142Z,12.63
2022-08-21T00:12:33.004Z,12.59
2022-08-21T00:13:32.923Z,12.63
2022-08-21T00:14:32.898Z,12.58
2022-08-21T00:15:32.858Z,12.61
2022-08-21T00:16:32.933Z,12.62
2022-08-21T00:17:32.832Z,12.61
2022-08-21T00:18:32.822Z,12.61
2022-08-21T00:19:32.797Z,12.58
2022-08-21T00:20:32.762Z,12.55
2022-08-21T00:21:32.745Z,12.58
2022-08-21T00:22:32.746Z,12.58
2022-08-21T00:23:32.747Z,12.66
2022-08-21T00:24:32.722Z,12.66
2022-08-21T00:25:32.702Z,12.70
2022-08-21T00:26:32.682Z,12.71
2022-08-21T00:27:32.672Z,12.71
2022-08-21T00:28:32.712Z,12.73
2022-08-21T00:29:32.632Z,12.73
2022-08-21T00:30:32.624Z,12.71
2022-08-21T00:31:32.743Z,12.69
2022-08-21T00:32:32.647Z,12.70
2022-08-21T00:33:32.612Z,12.69
2022-08-21T00:34:32.572Z,12.63
2022-08-21T00:35:32.562Z,12.62
2022-08-21T00:36:32.562Z,12.63
2022-08-21T00:37:35.240Z,12.59
2022-08-21T00:38:32.634Z,12.56
2022-08-21T00:39:32.513Z,12.54
2022-08-21T00:40:32.577Z,12.54
2022-08-21T00:41:38.157Z,12.51
2022-08-21T00:42:33.471Z,12.46
2022-08-21T00:43:32.502Z,12.46
2022-08-21T00:44:32.453Z,12.43
2022-08-21T00:45:32.433Z,12.41
2022-08-21T00:46:32.423Z,12.38
2022-08-21T00:47:32.407Z,12.37
2022-08-21T00:48:32.424Z,12.37
2022-08-21T00:49:32.372Z,12.33
2022-08-21T00:50:32.373Z,12.31
2022-08-21T00:51:32.363Z,12.30
2022-08-21T00:52:33.361Z,12.25
2022-08-21T00:53:32.373Z,12.23
2022-08-21T00:54:32.315Z,12.22
2022-08-21T00:55:32.659Z,12.22
2022-08-21T00:56:32.297Z,12.19
2022-08-21T00:57:32.302Z,12.21
2022-08-21T00:58:32.292Z,12.16
2022-08-21T00:59:32.252Z,12.16
2022-08-21T01:00:32.254Z,12.15
2022-08-21T01:01:32.326Z,12.12
2022-08-21T01:02:32.282Z,12.12
2022-08-21T01:03:32.372Z,12.13
2022-08-21T01:04:32.182Z,12.12
2022-08-21T01:05:32.171Z,12.13
2022-08-21T01:06:32.163Z,12.08
2022-08-21T01:07:32.153Z,12.08
2022-08-21T01:08:32.216Z,12.07
2022-08-21T01:09:32.111Z,12.03
2022-08-21T01:10:32.136Z,12.01
2022-08-21T01:11:32.122Z,12.04
2022-08-21T01:12:32.152Z,12.03
2022-08-21T01:13:32.093Z,12.00
2022-08-21T01:14:32.068Z,11.98
2022-08-21T01:15:32.043Z,12.00
2022-08-21T01:16:32.081Z,11.98
2022-08-21T01:17:32.142Z,11.97
2022-08-21T01:18:32.029Z,11.97
2022-08-21T01:19:32.256Z,12.01
2022-08-21T01:20:32.550Z,11.97
2022-08-21T01:21:32.109Z,11.98
2022-08-21T01:22:31.965Z,11.98
2022-08-21T01:23:31.977Z,12.01
2022-08-21T01:24:31.961Z,12.05
2022-08-21T01:25:31.981Z,12.05
2022-08-21T01:26:34.035Z,12.04
2022-08-21T01:27:31.899Z,12.01
2022-08-21T01:28:31.892Z,12.05
2022-08-21T01:29:31.862Z,12.05
2022-08-21T01:30:31.844Z,12.05
2022-08-21T01:31:31.842Z,12.04
2022-08-21T01:32:31.842Z,12.03
2022-08-21T01:33:31.832Z,11.97
2022-08-21T01:34:31.792Z,11.98
2022-08-21T01:35:31.790Z,11.94
2022-08-21T01:36:31.762Z,11.96
2022-08-21T01:37:31.763Z,11.98
2022-08-21T01:38:31.769Z,11.97
2022-08-21T01:39:31.802Z,11.93
2022-08-21T01:40:31.780Z,11.96
2022-08-21T01:41:31.704Z,11.98
2022-08-21T01:42:31.722Z,12.01
2022-08-21T01:43:39.047Z,12.04
2022-08-21T01:44:32.667Z,12.04
2022-08-21T01:45:31.658Z,12.05
2022-08-21T01:46:31.641Z,12.05
2022-08-21T01:47:31.632Z,12.08
2022-08-21T01:48:31.626Z,12.07
2022-08-21T01:49:31.633Z,12.08
2022-08-21T01:50:31.583Z,12.11
2022-08-21T01:51:31.702Z,12.07
2022-08-21T01:52:31.554Z,12.12
2022-08-21T01:53:33.616Z,12.12
2022-08-21T01:54:31.553Z,12.16
2022-08-21T01:55:31.663Z,12.15
2022-08-21T01:56:31.593Z,12.13
2022-08-21T01:57:31.513Z,12.13
2022-08-21T01:58:31.483Z,12.07
2022-08-21T01:59:31.562Z,12.04
2022-08-21T02:00:31.458Z,12.03
2022-08-21T02:01:31.536Z,12.04
2022-08-21T02:02:31.432Z,12.04
2022-08-21T02:03:35.814Z,12.04
2022-08-21T02:04:31.451Z,12.00
2022-08-21T02:05:31.424Z,11.97
2022-08-21T02:06:31.371Z,11.96
2022-08-21T02:07:31.385Z,11.93
2022-08-21T02:08:31.342Z,11.96
2022-08-21T02:09:31.382Z,11.96
2022-08-21T02:10:31.321Z,11.90
2022-08-21T02:11:31.432Z,11.94
2022-08-21T02:12:31.313Z,11.93
2022-08-21T02:13:31.299Z,11.90
2022-08-21T02:14:32.724Z,11.90
2022-08-21T02:15:31.254Z,11.90
2022-08-21T02:16:31.241Z,11.87
2022-08-21T02:17:31.242Z,11.84
2022-08-21T02:18:31.214Z,11.87
2022-08-21T02:19:31.249Z,11.87
2022-08-21T02:20:32.182Z,11.85
2022-08-21T02:21:31.230Z,11.90
2022-08-21T02:22:31.178Z,11.81
2022-08-21T02:23:31.173Z,11.82
2022-08-21T02:24:31.162Z,11.85
2022-08-21T02:25:31.122Z,11.82
2022-08-21T02:26:31.114Z,11.82
2022-08-21T02:27:31.113Z,11.84
2022-08-21T02:28:31.121Z,11.79
2022-08-21T02:29:31.102Z,11.78
2022-08-21T02:30:31.213Z,11.79
2022-08-21T02:31:31.050Z,11.79
2022-08-21T02:32:31.032Z,11.77
2022-08-21T02:33:31.177Z,11.79
2022-08-21T02:34:31.031Z,11.75
2022-08-21T02:35:31.030Z,11.75
2022-08-21T02:36:30.991Z,11.74
2022-08-21T02:37:30.981Z,11.74
2022-08-21T02:38:30.961Z,11.72
2022-08-21T02:39:30.968Z,11.78
2022-08-21T02:40:30.926Z,11.78
2022-08-21T02:41:30.936Z,11.75
2022-08-21T02:42:30.912Z,11.77
2022-08-21T02:43:30.903Z,11.84
2022-08-21T02:44:34.616Z,11.81
2022-08-21T02:45:30.861Z,11.87
2022-08-21T02:46:30.851Z,11.94
2022-08-21T02:47:30.841Z,11.97
2022-08-21T02:48:30.881Z,11.94
2022-08-21T02:49:30.831Z,11.94
2022-08-21T02:50:30.801Z,11.93
2022-08-21T02:51:30.791Z,11.93
2022-08-21T02:52:30.781Z,11.93
2022-08-21T02:53:30.750Z,11.93
2022-08-21T02:54:30.771Z,11.96
2022-08-21T02:55:30.735Z,11.98
2022-08-21T02:56:31.558Z,11.96
2022-08-21T02:57:30.714Z,11.97
2022-08-21T02:58:30.692Z,11.98
2022-08-21T02:59:30.712Z,12.01
2022-08-21T03:00:30.673Z,11.97
2022-08-21T03:01:30.683Z,11.97
2022-08-21T03:02:30.730Z,11.97
2022-08-21T03:03:30.639Z,11.97
2022-08-21T03:04:30.653Z,11.97
2022-08-21T03:05:30.638Z,11.96
2022-08-21T03:06:31.405Z,11.94
2022-08-21T03:07:30.602Z,11.93
2022-08-21T03:08:30.561Z,11.88
2022-08-21T03:09:30.607Z,11.87
2022-08-21T03:10:30.541Z,11.85
2022-08-21T03:11:30.521Z,11.84
2022-08-21T03:12:30.515Z,11.82
2022-08-21T03:13:30.501Z,11.82
2022-08-21T03:14:30.521Z,11.82
2022-08-21T03:15:30.513Z,11.78
2022-08-21T03:16:34.730Z,11.77
2022-08-21T03:17:30.489Z,11.75
2022-08-21T03:18:30.448Z,11.75
2022-08-21T03:19:30.441Z,11.75
2022-08-21T03:20:30.401Z,11.69
2022-08-21T03:21:30.467Z,11.78
2022-08-21T03:22:30.750Z,11.78
2022-08-21T03:23:32.487Z,11.79
2022-08-21T03:24:30.380Z,11.79
2022-08-21T03:25:39.528Z,11.77
2022-08-21T03:26:31.336Z,11.79
2022-08-21T03:27:30.350Z,11.78
2022-08-21T03:28:30.339Z,11.79
2022-08-21T03:29:30.361Z,11.78
2022-08-21T03:30:30.290Z,11.78
2022-08-21T03:31:30.261Z,11.81
2022-08-21T03:32:30.263Z,11.82
2022-08-21T03:33:30.292Z,11.79
2022-08-21T03:34:34.340Z,11.84
2022-08-21T03:35:30.210Z,11.87
2022-08-21T03:36:30.200Z,11.88
2022-08-21T03:37:30.188Z,11.96
2022-08-21T03:38:30.170Z,11.96
2022-08-21T03:39:30.190Z,11.98
2022-08-21T03:40:30.150Z,11.98
2022-08-21T03:41:30.129Z,12.00
2022-08-21T03:42:30.119Z,12.03
2022-08-21T03:43:30.947Z,12.01
2022-08-21T03:44:30.124Z,12.04
2022-08-21T03:45:30.197Z,12.03
2022-08-21T03:46:30.070Z,11.98
2022-08-21T03:47:30.001Z,12.01
2022-08-21T03:48:30.051Z,12.00
2022-08-21T03:49:30.009Z,12.00
2022-08-21T03:50:29.966Z,12.03
2022-08-21T03:51:29.951Z,12.05
2022-08-21T03:52:29.939Z,12.00
2022-08-21T03:53:29.909Z,12.00
2022-08-21T03:54:29.964Z,12.01
2022-08-21T03:55:29.895Z,12.04
2022-08-21T03:56:29.911Z,12.05
2022-08-21T03:57:29.889Z,12.07
2022-08-21T03:58:29.884Z,12.05
2022-08-21T03:59:29.869Z,12.08
2022-08-21T04:00:29.829Z,12.13
2022-08-21T04:01:29.864Z,12.15
2022-08-21T04:02:29.839Z,12.18
2022-08-21T04:03:29.800Z,12.21
2022-08-21T04:04:29.840Z,12.22
2022-08-21T04:05:29.759Z,12.23
2022-08-21T04:06:30.874Z,12.26
2022-08-21T04:07:29.762Z,12.29
2022-08-21T04:08:29.749Z,12.29
2022-08-21T04:09:29.737Z,12.33
2022-08-21T04:10:29.698Z,12.34
2022-08-21T04:11:29.720Z,12.38
2022-08-21T04:12:29.668Z,12.41
2022-08-21T04:13:29.659Z,12.46
2022-08-21T04:14:29.680Z,12.46
2022-08-21T04:15:29.627Z,12.46
2022-08-21T04:16:29.619Z,12.52
2022-08-21T04:17:29.621Z,12.52
2022-08-21T04:18:29.601Z,12.52
2022-08-21T04:19:29.608Z,12.58
2022-08-21T04:20:29.569Z,12.61
2022-08-21T04:21:29.548Z,12.62
2022-08-21T04:22:29.569Z,12.69
2022-08-21T04:23:29.528Z,12.67
2022-08-21T04:24:30.078Z,12.73
2022-08-21T04:25:29.514Z,12.81
2022-08-21T04:26:29.492Z,12.85
2022-08-21T04:27:29.496Z,12.88
2022-08-21T04:28:30.465Z,12.95
2022-08-21T04:29:29.472Z,12.98
2022-08-21T04:30:29.437Z,12.99
2022-08-21T04:31:29.433Z,13.04
2022-08-21T04:32:29.419Z,13.04
2022-08-21T04:33:29.440Z,13.09
2022-08-21T04:34:29.410Z,13.12
2022-08-21T04:35:29.367Z,13.09
2022-08-21T04:36:29.358Z,13.16
2022-08-21T04:37:29.349Z,13.17
2022-08-21T04:38:36.487Z,13.19
2022-08-21T04:39:30.350Z,13.24
2022-08-21T04:40:29.376Z,13.25
2022-08-21T04:41:29.289Z,13.29
2022-08-21T04:42:29.278Z,13.31
2022-08-21T04:43:29.271Z,13.35
2022-08-21T04:44:29.280Z,13.43
2022-08-21T04:45:29.238Z,13.43
2022-08-21T04:46:29.232Z,13.50
2022-08-21T04:47:41.856Z,13.48
2022-08-21T04:48:30.198Z,13.53
2022-08-21T04:49:29.211Z,13.59
2022-08-21T04:50:29.176Z,13.59
2022-08-21T04:51:29.158Z,13.62
2022-08-21T04:52:29.149Z,13.66
2022-08-21T04:53:29.151Z,13.69
2022-08-21T04:54:29.168Z,13.71
2022-08-21T04:55:29.109Z,13.75
2022-08-21T04:56:29.121Z,13.76
2022-08-21T04:57:36.415Z,13.79
2022-08-21T04:58:30.069Z,13.84
2022-08-21T04:59:29.093Z,13.87
2022-08-21T05:00:29.059Z,13.91
2022-08-21T05:01:29.132Z,13.93
2022-08-21T05:02:29.020Z,13.98
2022-08-21T05:03:29.010Z,14.04
2022-08-21T05:04:29.030Z,14.04
2022-08-21T05:05:28.979Z,14.09
2022-08-21T05:06:28.971Z,14.11
2022-08-21T05:07:42.651Z,14.12
2022-08-21T05:08:29.941Z,14.17
2022-08-21T05:09:28.949Z,14.21
2022-08-21T05:10:28.938Z,14.21
2022-08-21T05:11:28.898Z,14.24
2022-08-21T05:12:28.895Z,14.27
2022-08-21T05:13:28.880Z,14.27
2022-08-21T05:14:28.966Z,14.31
2022-08-21T05:15:28.841Z,14.31
2022-08-21T05:16:37.700Z,14.35
2022-08-21T05:17:29.820Z,14.39
2022-08-21T05:18:28.810Z,14.41
2022-08-21T05:19:28.832Z,14.45
2022-08-21T05:20:28.808Z,14.48
2022-08-21T05:21:28.770Z,14.52
2022-08-21T05:22:29.009Z,14.52
2022-08-21T05:23:28.758Z,14.57
2022-08-21T05:24:28.921Z,14.57
2022-08-21T05:25:28.716Z,14.59
2022-08-21T05:26:28.719Z,14.67
2022-08-21T05:27:28.688Z,14.67
2022-08-21T05:28:28.682Z,14.66
2022-08-21T05:29:28.689Z,14.64
2022-08-21T05:30:28.669Z,14.69
2022-08-21T05:31:28.676Z,14.74
2022-08-21T05:32:28.630Z,14.72
2022-08-21T05:33:28.609Z,14.78
2022-08-21T05:34:28.639Z,14.78
2022-08-21T05:35:28.581Z,14.82
2022-08-21T05:36:28.581Z,14.85
2022-08-21T05:37:28.630Z,14.86
2022-08-21T05:38:28.549Z,14.91
2022-08-21T05:39:28.558Z,14.91
2022-08-21T05:40:29.548Z,15.01
2022-08-21T05:41:28.541Z,15.03
2022-08-21T05:42:28.511Z,15.11
2022-08-21T05:43:28.585Z,15.13
2022-08-21T05:44:28.617Z,15.18
2022-08-21T05:45:43.033Z,15.23
2022-08-21T05:46:29.439Z,15.33
2022-08-21T05:47:28.429Z,15.35
2022-08-21T05:48:28.419Z,15.40
2022-08-21T05:49:28.429Z,15.43
2022-08-21T05:50:33.067Z,15.46
2022-08-21T05:51:29.394Z,15.51
2022-08-21T05:52:28.359Z,15.51
2022-08-21T05:53:28.398Z,15.51
2022-08-21T05:54:28.418Z,15.51
2022-08-21T05:55:28.319Z,15.52
2022-08-21T05:56:29.322Z,15.51
2022-08-21T05:57:28.299Z,15.46
2022-08-21T05:58:28.290Z,15.38
2022-08-21T05:59:29.050Z,15.40
2022-08-21T06:00:28.319Z,15.37
2022-08-21T06:01:28.282Z,15.35
2022-08-21T06:02:28.310Z,15.33
2022-08-21T06:03:28.239Z,15.28
2022-08-21T06:04:28.242Z,15.28
2022-08-21T06:05:37.366Z,15.27
2022-08-21T06:06:29.189Z,15.23
2022-08-21T06:07:28.183Z,15.23
2022-08-21T06:08:28.150Z,15.23
2022-08-21T06:09:28.171Z,15.23
2022-08-21T06:10:28.201Z,15.27
2022-08-21T06:11:29.152Z,15.25
2022-08-21T06:12:28.107Z,15.28
2022-08-21T06:13:28.931Z,15.28
2022-08-21T06:14:28.101Z,15.25
2022-08-21T06:15:28.096Z,15.31
2022-08-21T06:16:28.779Z,15.33
2022-08-21T06:17:28.180Z,15.33
2022-08-21T06:18:28.061Z,15.34
2022-08-21T06:19:28.035Z,15.34
2022-08-21T06:20:28.048Z,15.35
2022-08-21T06:21:27.999Z,15.40
2022-08-21T06:22:27.979Z,15.43
2022-08-21T06:23:33.145Z,15.41
2022-08-21T06:24:29.152Z,15.46
2022-08-21T06:25:28.010Z,15.51
2022-08-21T06:26:27.999Z,15.58
2022-08-21T06:27:28.021Z,15.60
2022-08-21T06:28:27.890Z,15.66
2022-08-21T06:29:27.901Z,15.70
2022-08-21T06:30:27.864Z,15.73
2022-08-21T06:31:27.878Z,15.74
2022-08-21T06:32:28.006Z,15.77
2022-08-21T06:33:32.333Z,15.80
2022-08-21T06:34:27.840Z,15.80
2022-08-21T06:35:27.802Z,15.84
2022-08-21T06:36:27.789Z,15.85
2022-08-21T06:37:27.781Z,15.89
2022-08-21T06:38:27.761Z,15.86
2022-08-21T06:39:32.379Z,15.92
2022-08-21T06:40:29.599Z,15.93
2022-08-21T06:41:27.718Z,15.95
2022-08-21T06:42:28.076Z,15.98
2022-08-21T06:43:39.311Z,15.99
2022-08-21T06:44:28.710Z,15.99
2022-08-21T06:45:29.939Z,16.04
2022-08-21T06:46:28.654Z,16.06
2022-08-21T06:47:27.651Z,16.08
2022-08-21T06:48:27.631Z,16.14
2022-08-21T06:49:27.642Z,16.17
2022-08-21T06:50:27.851Z,16.30
2022-08-21T06:51:27.582Z,16.33
2022-08-21T06:52:27.592Z,16.45
2022-08-21T06:53:27.561Z,16.65
2022-08-21T06:54:27.582Z,16.84
2022-08-21T06:55:29.301Z,17.03
2022-08-21T06:56:27.523Z,17.27
2022-08-21T06:57:27.512Z,17.45
2022-08-21T06:58:27.514Z,17.51
2022-08-21T06:59:27.508Z,17.62
2022-08-21T07:00:27.473Z,17.81
2022-08-21T07:01:27.512Z,18.09
2022-08-21T07:02:27.492Z,18.36
2022-08-21T07:03:27.431Z,18.71
2022-08-21T07:04:27.652Z,18.99
2022-08-21T07:05:27.559Z,19.31
2022-08-21T07:06:27.473Z,19.68
2022-08-21T07:07:27.943Z,20.07
2022-08-21T07:08:27.400Z,20.30
2022-08-21T07:09:28.282Z,20.48
2022-08-21T07:10:27.334Z,20.64
2022-08-21T07:11:27.462Z,20.72
2022-08-21T07:12:27.312Z,20.83
2022-08-21T07:13:27.432Z,20.94
2022-08-21T07:14:27.312Z,21.01
2022-08-21T07:15:27.331Z,21.16
2022-08-21T07:16:27.482Z,21.30
2022-08-21T07:17:27.871Z,21.36
2022-08-21T07:18:27.233Z,21.38
2022-08-21T07:19:27.254Z,21.45
2022-08-21T07:20:27.203Z,21.38
2022-08-21T07:21:27.193Z,21.28
2022-08-21T07:22:27.173Z,21.05
2022-08-21T07:23:27.164Z,20.91
2022-08-21T07:24:27.464Z,20.96
2022-08-21T07:25:27.207Z,21.03
2022-08-21T07:26:27.124Z,21.16
2022-08-21T07:27:27.129Z,21.21
2022-08-21T07:28:27.104Z,21.18
2022-08-21T07:29:27.131Z,21.09
2022-08-21T07:30:27.074Z,21.05
2022-08-21T07:31:27.228Z,21.09
2022-08-21T07:32:27.094Z,21.15
2022-08-21T07:33:27.085Z,21.28
2022-08-21T07:34:27.052Z,21.30
2022-08-21T07:35:27.024Z,21.37
2022-08-21T07:36:26.994Z,21.45
2022-08-21T07:37:26.995Z,21.49
2022-08-21T07:38:26.965Z,21.40
2022-08-21T07:39:26.992Z,21.26
2022-08-21T07:40:27.255Z,21.22
2022-08-21T07:41:26.936Z,21.28
2022-08-21T07:42:26.917Z,21.38
2022-08-21T07:43:26.905Z,21.55
2022-08-21T07:44:26.937Z,21.85
2022-08-21T07:45:26.885Z,22.12
2022-08-21T07:46:26.897Z,22.48
2022-08-21T07:47:41.535Z,22.82
2022-08-21T07:48:27.836Z,23.18
2022-08-21T07:49:26.857Z,23.50
2022-08-21T07:50:26.825Z,23.77
2022-08-21T07:51:26.806Z,24.05
2022-08-21T07:52:26.901Z,24.33
2022-08-21T07:53:27.776Z,24.48
2022-08-21T07:54:33.314Z,24.56
2022-08-21T07:55:27.758Z,24.60
2022-08-21T07:56:26.736Z,24.53
2022-08-21T07:57:26.778Z,24.44
2022-08-21T07:58:26.707Z,24.34
2022-08-21T07:59:26.728Z,24.34
2022-08-21T08:00:26.688Z,24.45
2022-08-21T08:01:26.745Z,24.56
2022-08-21T08:02:26.665Z,24.77
2022-08-21T08:03:29.154Z,25.02
2022-08-21T08:04:26.755Z,25.27
2022-08-21T08:05:26.638Z,25.53
2022-08-21T08:06:26.608Z,25.78
2022-08-21T08:07:26.609Z,25.94
2022-08-21T08:08:26.598Z,26.06
2022-08-21T08:09:26.669Z,26.11
2022-08-21T08:10:26.559Z,26.27
2022-08-21T08:11:26.557Z,26.31
2022-08-21T08:12:26.529Z,26.23
2022-08-21T08:13:26.528Z,26.12
2022-08-21T08:14:31.545Z,26.17
2022-08-21T08:15:27.499Z,26.20
2022-08-21T08:16:26.480Z,26.36
2022-08-21T08:17:26.518Z,26.41
2022-08-21T08:18:26.460Z,26.57
2022-08-21T08:19:26.480Z,26.53
2022-08-21T08:20:26.431Z,26.61
2022-08-21T08:21:26.420Z,26.73
2022-08-21T08:22:26.412Z,26.87
2022-08-21T08:23:26.392Z,26.97
2022-08-21T08:24:26.459Z,27.05
2022-08-21T08:25:26.379Z,27.09
2022-08-21T08:26:26.351Z,27.03
2022-08-21T08:27:26.362Z,26.93
2022-08-21T08:28:26.332Z,26.93
2022-08-21T08:29:26.350Z,26.88
2022-08-21T08:30:28.925Z,26.86
2022-08-21T08:31:27.294Z,26.59
2022-08-21T08:32:26.297Z,26.36
2022-08-21T08:33:26.276Z,26.32
2022-08-21T08:34:26.354Z,26.44
2022-08-21T08:35:26.244Z,26.61
2022-08-21T08:36:26.224Z,26.65
2022-08-21T08:37:27.767Z,26.47
2022-08-21T08:38:27.384Z,26.54
2022-08-21T08:39:27.082Z,26.66
2022-08-21T08:40:26.584Z,26.78
2022-08-21T08:41:30.668Z,26.81
2022-08-21T08:42:32.840Z,26.84
2022-08-21T08:43:27.135Z,26.73
2022-08-21T08:44:26.146Z,26.86
2022-08-21T08:45:26.111Z,27.03
2022-08-21T08:46:26.094Z,27.08
2022-08-21T08:47:26.116Z,27.09
2022-08-21T08:48:26.096Z,27.13
2022-08-21T08:49:26.086Z,27.25
2022-08-21T08:50:26.045Z,27.31
2022-08-21T08:51:26.065Z,27.24
2022-08-21T08:52:26.027Z,27.30
2022-08-21T08:53:26.019Z,27.33
2022-08-21T08:54:26.039Z,27.43
2022-08-21T08:55:27.394Z,27.53
2022-08-21T08:56:25.968Z,27.66
2022-08-21T08:57:25.968Z,27.78
2022-08-21T08:58:25.937Z,27.86
2022-08-21T08:59:26.207Z,28.01
2022-08-21T09:00:25.908Z,28.09
2022-08-21T09:01:26.209Z,28.08
2022-08-21T09:02:25.889Z,28.01
2022-08-21T09:03:25.877Z,28.01
2022-08-21T09:04:25.889Z,28.01
2022-08-21T09:05:26.158Z,27.96
2022-08-21T09:06:25.832Z,27.95
2022-08-21T09:07:25.830Z,28.01
2022-08-21T09:08:25.839Z,28.06
2022-08-21T09:09:25.827Z,28.17
2022-08-21T09:10:25.798Z,28.15
2022-08-21T09:11:25.770Z,28.08
2022-08-21T09:12:25.804Z,27.99
2022-08-21T09:13:25.781Z,27.90
2022-08-21T09:14:25.760Z,27.88
2022-08-21T09:15:25.723Z,27.91
2022-08-21T09:16:25.711Z,27.93
2022-08-21T09:17:25.765Z,27.74
2022-08-21T09:18:25.680Z,27.69
2022-08-21T09:19:25.674Z,27.59
2022-08-21T09:20:25.676Z,27.50
2022-08-21T09:21:25.891Z,27.69
2022-08-21T09:22:25.656Z,27.77
2022-08-21T09:23:25.674Z,27.81
2022-08-21T09:24:26.433Z,27.65
2022-08-21T09:25:25.674Z,27.68
2022-08-21T09:26:25.713Z,27.76
2022-08-21T09:27:25.565Z,27.80
2022-08-21T09:28:25.548Z,27.78
2022-08-21T09:29:25.558Z,27.86
2022-08-21T09:30:25.544Z,27.96
2022-08-21T09:31:25.611Z,27.99
2022-08-21T09:32:37.781Z,28.11
2022-08-21T09:33:26.496Z,28.27
2022-08-21T09:34:25.547Z,28.27
2022-08-21T09:35:25.483Z,28.23
2022-08-21T09:36:25.437Z,28.20
2022-08-21T09:37:25.436Z,28.17
2022-08-21T09:38:25.500Z,28.06
2022-08-21T09:39:25.404Z,28.02
2022-08-21T09:40:25.600Z,27.98
2022-08-21T09:41:25.379Z,27.87
2022-08-21T09:42:25.356Z,28.03
2022-08-21T09:43:25.437Z,28.01
2022-08-21T09:44:25.339Z,28.08
2022-08-21T09:45:25.427Z,28.21
2022-08-21T09:46:25.309Z,28.24
2022-08-21T09:47:26.944Z,27.28
2022-08-21T09:48:26.828Z,26.44
2022-08-21T09:49:26.280Z,25.93
2022-08-21T09:50:25.316Z,25.89
2022-08-21T09:51:25.240Z,25.38
2022-08-21T09:52:25.294Z,24.89
2022-08-21T09:53:25.222Z,25.27
2022-08-21T09:54:25.243Z,25.85
2022-08-21T09:55:25.228Z,26.35
2022-08-21T09:56:25.265Z,26.75
2022-08-21T09:57:25.190Z,27.21
2022-08-21T09:58:25.153Z,27.50
2022-08-21T09:59:25.159Z,27.74
2022-08-21T10:00:25.154Z,27.86
2022-08-21T10:01:25.230Z,27.95
2022-08-21T10:02:25.113Z,28.05
2022-08-21T10:03:25.084Z,28.21
2022-08-21T10:04:25.078Z,28.06
2022-08-21T10:05:25.090Z,28.05
2022-08-21T10:06:25.044Z,28.21
2022-08-21T10:07:25.054Z,28.23
2022-08-21T10:08:25.012Z,28.52
2022-08-21T10:09:25.005Z,28.43
2022-08-21T10:10:25.014Z,28.40
2022-08-21T10:11:24.983Z,28.23
2022-08-21T10:12:24.964Z,27.34
2022-08-21T10:13:24.999Z,26.84
2022-08-21T10:14:24.944Z,26.36
2022-08-21T10:15:25.030Z,26.60
2022-08-21T10:16:25.003Z,26.86
2022-08-21T10:17:24.945Z,27.16
2022-08-21T10:18:24.905Z,27.45
2022-08-21T10:19:24.926Z,27.74
2022-08-21T10:20:24.937Z,27.93
2022-08-21T10:21:24.860Z,27.91
2022-08-21T10:22:24.826Z,27.90
2022-08-21T10:23:24.823Z,27.86
2022-08-21T10:24:31.712Z,27.99
2022-08-21T10:25:25.834Z,28.11
2022-08-21T10:26:24.817Z,28.14
2022-08-21T10:27:24.864Z,28.18
2022-08-21T10:28:24.754Z,28.35
2022-08-21T10:29:24.746Z,28.60
2022-08-21T10:30:24.768Z,28.79
2022-08-21T10:31:24.745Z,29.02
2022-08-21T10:32:26.308Z,29.23
2022-08-21T10:33:24.709Z,29.20
2022-08-21T10:34:24.830Z,29.03
2022-08-21T10:35:24.839Z,29.02
2022-08-21T10:36:24.706Z,29.10
2022-08-21T10:37:24.656Z,29.02
2022-08-21T10:38:48.834Z,29.05
2022-08-21T10:39:35.873Z,28.88
2022-08-21T10:40:25.747Z,28.70
2022-08-21T10:41:24.632Z,28.67
2022-08-21T10:42:28.075Z,28.65
2022-08-21T10:43:24.601Z,28.54
2022-08-21T10:44:24.618Z,28.33
2022-08-21T10:45:25.312Z,27.78
2022-08-21T10:46:24.521Z,27.13
2022-08-21T10:47:24.552Z,27.03
2022-08-21T10:48:24.542Z,27.25
2022-08-21T10:49:24.545Z,27.30
2022-08-21T10:50:24.520Z,27.46
2022-08-21T10:51:29.129Z,27.61
2022-08-21T10:52:24.443Z,27.88
2022-08-21T10:53:24.443Z,28.17
2022-08-21T10:54:24.423Z,28.24
2022-08-21T10:55:24.446Z,28.27
2022-08-21T10:56:24.402Z,28.46
2022-08-21T10:57:29.815Z,28.65
2022-08-21T10:58:25.606Z,28.76
2022-08-21T10:59:24.474Z,28.95
2022-08-21T11:00:24.395Z,29.14
2022-08-21T11:01:24.380Z,29.18
2022-08-21T11:02:24.345Z,29.35
2022-08-21T11:03:24.321Z,29.52
2022-08-21T11:04:24.302Z,29.58
2022-08-21T11:05:25.369Z,29.67
2022-08-21T11:06:24.278Z,29.48
2022-08-21T11:07:24.714Z,29.33
2022-08-21T11:08:24.245Z,29.29
2022-08-21T11:09:24.232Z,29.26
2022-08-21T11:10:24.464Z,29.27
2022-08-21T11:11:24.219Z,29.25
2022-08-21T11:12:24.237Z,29.32
2022-08-21T11:13:25.920Z,29.35
2022-08-21T11:14:25.296Z,29.35
2022-08-21T11:15:29.492Z,29.32
2022-08-21T11:16:25.224Z,29.18
2022-08-21T11:17:24.138Z,28.95
2022-08-21T11:18:24.203Z,28.97
2022-08-21T11:19:24.110Z,28.88
2022-08-21T11:20:24.120Z,28.79
2022-08-21T11:21:24.081Z,28.67
2022-08-21T11:22:24.087Z,28.36
2022-08-21T11:23:24.061Z,28.30
2022-08-21T11:24:24.041Z,28.24
2022-08-21T11:25:24.222Z,28.08
2022-08-21T11:26:24.018Z,28.13
2022-08-21T11:27:24.132Z,28.03
2022-08-21T11:28:24.001Z,27.91
2022-08-21T11:29:24.022Z,27.45
2022-08-21T11:30:25.285Z,26.98
2022-08-21T11:31:24.121Z,27.08
2022-08-21T11:32:23.946Z,27.34
2022-08-21T11:33:24.557Z,27.55
2022-08-21T11:34:23.956Z,27.77
2022-08-21T11:35:24.073Z,27.98
2022-08-21T11:36:24.335Z,28.06
2022-08-21T11:37:24.090Z,28.13
2022-08-21T11:38:23.920Z,27.69
2022-08-21T11:39:24.025Z,27.49
2022-08-21T11:40:23.875Z,27.71
2022-08-21T11:41:23.866Z,27.52
2022-08-21T11:42:23.815Z,27.43
2022-08-21T11:43:23.930Z,26.98
2022-08-21T11:44:23.923Z,27.08
2022-08-21T11:45:23.904Z,27.33
2022-08-21T11:46:23.764Z,27.59
2022-08-21T11:47:23.748Z,27.55
2022-08-21T11:48:23.745Z,27.15
2022-08-21T11:49:23.749Z,27.12
2022-08-21T11:50:35.043Z,27.45
2022-08-21T11:51:24.795Z,27.66
2022-08-21T11:52:23.688Z,27.81
2022-08-21T11:53:23.670Z,27.90
2022-08-21T11:54:23.659Z,27.99
2022-08-21T11:55:23.948Z,28.13
2022-08-21T11:56:23.794Z,28.05
2022-08-21T11:57:23.656Z,28.24
2022-08-21T11:58:23.610Z,27.87
2022-08-21T11:59:23.610Z,27.63
2022-08-21T12:00:23.620Z,27.21
2022-08-21T12:01:23.579Z,26.75
2022-08-21T12:02:23.610Z,26.35
2022-08-21T12:03:23.549Z,25.91
2022-08-21T12:04:26.112Z,25.57
2022-08-21T12:05:23.573Z,25.26
2022-08-21T12:06:24.513Z,25.07
2022-08-21T12:07:23.512Z,24.92
2022-08-21T12:08:23.523Z,25.17
2022-08-21T12:09:23.462Z,25.60
2022-08-21T12:10:23.487Z,26.03
2022-08-21T12:11:23.523Z,26.46
2022-08-21T12:12:24.432Z,26.78
2022-08-21T12:13:23.444Z,27.02
2022-08-21T12:14:24.404Z,27.33
2022-08-21T12:15:23.414Z,27.68
2022-08-21T12:16:23.464Z,27.78
2022-08-21T12:17:23.455Z,27.96
2022-08-21T12:18:23.355Z,28.13
2022-08-21T12:19:23.344Z,28.06
2022-08-21T12:20:23.497Z,28.03
2022-08-21T12:21:23.315Z,28.01
2022-08-21T12:22:23.305Z,28.08
2022-08-21T12:23:23.287Z,28.14
2022-08-21T12:24:23.277Z,28.21
2022-08-21T12:25:23.463Z,28.27
2022-08-21T12:26:23.255Z,28.28
2022-08-21T12:27:23.357Z,28.32
2022-08-21T12:28:23.231Z,28.40
2022-08-21T12:29:23.219Z,28.48
2022-08-21T12:30:26.181Z,28.48
2022-08-21T12:31:23.181Z,28.45
2022-08-21T12:32:23.181Z,28.54
2022-08-21T12:33:23.170Z,28.54
2022-08-21T12:34:23.149Z,28.62
2022-08-21T12:35:25.402Z,28.58
2022-08-21T12:36:23.129Z,28.51
2022-08-21T12:37:23.109Z,28.62
2022-08-21T12:38:23.102Z,28.67
2022-08-21T12:39:23.085Z,28.74
2022-08-21T12:40:23.187Z,28.69
2022-08-21T12:41:23.059Z,28.17
2022-08-21T12:42:23.051Z,27.59
2022-08-21T12:43:23.031Z,27.71
2022-08-21T12:44:23.032Z,27.71
2022-08-21T12:45:23.031Z,27.49
2022-08-21T12:46:23.012Z,27.16
2022-08-21T12:47:23.002Z,27.23
2022-08-21T12:48:25.132Z,27.33
2022-08-21T12:49:26.772Z,27.48
2022-08-21T12:50:22.995Z,27.62
2022-08-21T12:51:22.931Z,27.83
2022-08-21T12:52:22.934Z,28.03